Terminal Aerodrome Forecast
Issued by NWS

Home | Current Version | Previous Version | Text Only | Print | Product List | Glossary On
Versions: 1 2 3 4 5 6 7 8 9 10 11 12 13 14
946
FTUS43 KIND 271120
TAFHUF
TAF
KHUF 271120Z 2712/2812 25014G20KT P6SM SCT009 OVC014
     FM271700 25013KT P6SM BKN020
     FM272100 24013KT P6SM BKN035
     FM280000 23008KT P6SM SCT030
     FM280300 20004KT P6SM SCT045
     FM280500 18004KT P6SM BKN080=

USA.gov is the U.S. government's official web portal to all federal, state and local government web resources and services.